Terminal Aerodrome Forecast
Issued by NWS

Home | Current Version | Previous Version | Text Only | Print | Product List | Glossary On
Versions: 1 2 3 4 5 6 7 8 9 10 11 12 13 14 15 16 17 18 19 20 21 22 23 24 25 26 27 28 29 30 31 32 33 34 35 36 37 38
429
FTAK31 PANC 131131
TAFAVD
TAF
PAVD 131131Z 1312/1412 VRB03KT 6SM -RASN SCT015 OVC025
      TEMPO 1312/1315 3SM -RASN BKN015
     FM132000 VRB03KT P6SM -SHRA BKN045
      AMD LTD TO CLD VIS AND WIND=

USA.gov is the U.S. government's official web portal to all federal, state and local government web resources and services.